Time;durP1;ratioP1;P1;durP2;ratioP2;P2;SDS_P1;SDS_P2;PMS_P1;PMS_P2;Temp;Humidity;BMP_temperature;BMP_pressure;BME280_temperature;BME280_humidity;BME280_pressure;Samples;Min_cycle;Max_cycle;Signal;HPM_P1;HPM_P2
2023/02/17 00:02:14;;;;;;;34.22;25.13;;;8.40;99.90;;;;;;5029358;28;20036;-53
2023/02/17 00:05:00;;;;;;;32.67;24.77;;;8.40;99.90;;;;;;5016777;28;20497;-52
2023/02/17 00:07:46;;;;;;;35.42;26.80;;;8.30;99.90;;;;;;5029504;28;20033;-51
2023/02/17 00:10:32;;;;;;;35.22;25.23;;;8.30;99.90;;;;;;5042034;28;20040;-51
2023/02/17 00:13:18;;;;;;;37.95;25.75;;;8.30;99.90;;;;;;5047319;28;20035;-54
2023/02/17 00:16:09;;;;;;;34.60;24.58;;;8.40;99.90;;;;;;5037348;28;20040;-56
2023/02/17 00:19:00;;;;;;;34.92;24.27;;;8.40;99.90;;;;;;5049042;28;20725;-52
2023/02/17 00:21:46;;;;;;;34.20;25.95;;;8.30;99.90;;;;;;5028256;28;20033;-50
2023/02/17 00:24:33;;;;;;;35.88;24.92;;;8.30;99.90;;;;;;5029121;28;20025;-53
2023/02/17 00:27:19;;;;;;;32.50;24.55;;;8.30;99.90;;;;;;5030660;28;20025;-55
2023/02/17 00:30:05;;;;;;;37.55;24.67;;;8.30;99.90;;;;;;5014101;28;20053;-54
2023/02/17 00:32:51;;;;;;;31.73;24.00;;;8.30;99.90;;;;;;5028294;28;20034;-55
2023/02/17 00:35:40;;;;;;;33.88;24.63;;;8.30;99.90;;;;;;5030256;28;20045;-54
2023/02/17 00:38:28;;;;;;;36.42;23.85;;;8.30;99.90;;;;;;5031867;28;20498;-50
2023/02/17 00:41:18;;;;;;;32.45;23.48;;;8.30;99.90;;;;;;5037539;28;20398;-55
2023/02/17 00:44:04;;;;;;;33.08;23.33;;;8.40;99.90;;;;;;5033181;28;20454;-53
2023/02/17 00:46:50;;;;;;;31.42;23.10;;;8.50;99.90;;;;;;5033776;28;20112;-53
2023/02/17 00:49:36;;;;;;;37.08;24.38;;;8.60;99.90;;;;;;5033113;28;20022;-52
2023/02/17 00:52:22;;;;;;;35.15;25.08;;;8.50;99.90;;;;;;5030646;28;20064;-53
2023/02/17 00:55:08;;;;;;;33.60;24.65;;;8.60;99.90;;;;;;5035097;28;20103;-49
2023/02/17 00:57:54;;;;;;;32.90;24.25;;;8.70;99.90;;;;;;5035361;28;20029;-49
2023/02/17 01:00:40;;;;;;;35.72;24.38;;;8.70;99.90;;;;;;5033335;28;20026;-50
2023/02/17 01:03:26;;;;;;;34.25;24.48;;;8.70;99.90;;;;;;5031600;28;20033;-51
2023/02/17 01:06:21;;;;;;;32.72;24.63;;;8.70;99.90;;;;;;5031579;28;20032;-52
2023/02/17 01:09:11;;;;;;;35.33;24.10;;;8.70;99.90;;;;;;5034032;28;20024;-54
2023/02/17 01:11:57;;;;;;;34.38;25.90;;;8.70;99.90;;;;;;5030739;28;20548;-54
2023/02/17 01:14:43;;;;;;;31.90;24.35;;;8.70;99.90;;;;;;5032055;28;20049;-51
2023/02/17 01:17:29;;;;;;;33.63;23.60;;;8.70;99.90;;;;;;5032363;28;20041;-55
2023/02/17 01:20:15;;;;;;;32.28;24.30;;;8.70;99.90;;;;;;5037797;28;20116;-52
2023/02/17 01:23:02;;;;;;;34.40;26.00;;;8.70;99.90;;;;;;5032350;28;20038;-52
2023/02/17 01:25:49;;;;;;;33.15;24.65;;;8.70;99.90;;;;;;5037629;28;20025;-52
2023/02/17 01:28:35;;;;;;;34.35;24.00;;;8.70;99.90;;;;;;5034236;28;20076;-50
2023/02/17 01:31:22;;;;;;;35.25;25.35;;;8.70;99.90;;;;;;5034543;28;20085;-54
2023/02/17 01:34:09;;;;;;;34.47;24.35;;;8.70;99.90;;;;;;5014804;28;20057;-55
2023/02/17 01:36:55;;;;;;;36.17;24.27;;;8.70;99.90;;;;;;5015380;28;20026;-51
2023/02/17 01:39:41;;;;;;;34.75;25.23;;;8.70;99.90;;;;;;5033753;28;20033;-51
2023/02/17 01:42:27;;;;;;;37.47;25.30;;;8.70;99.90;;;;;;5033371;28;20422;-51
2023/02/17 01:45:16;;;;;;;35.75;26.60;;;8.60;99.90;;;;;;5034187;28;20112;-50
2023/02/17 01:48:17;;;;;;;42.30;26.80;;;8.70;99.90;;;;;;5033007;28;20117;-49
2023/02/17 01:51:09;;;;;;;33.83;25.85;;;8.70;99.90;;;;;;5033572;28;20528;-54
2023/02/17 01:54:08;;;;;;;39.03;26.73;;;8.70;99.90;;;;;;5033762;28;20067;-51
2023/02/17 01:56:57;;;;;;;34.40;25.77;;;8.70;99.90;;;;;;5032410;28;20057;-50
2023/02/17 01:59:44;;;;;;;36.97;25.77;;;8.70;99.90;;;;;;5032843;28;20036;-50
2023/02/17 02:02:30;;;;;;;35.75;25.27;;;8.70;99.90;;;;;;5032403;28;20033;-53
2023/02/17 02:05:18;;;;;;;36.13;26.70;;;8.70;99.90;;;;;;5034023;28;20057;-55
2023/02/17 02:08:05;;;;;;;34.95;26.77;;;8.80;99.90;;;;;;5032219;28;20496;-51
2023/02/17 02:10:50;;;;;;;33.47;24.23;;;8.70;99.90;;;;;;5033159;28;20448;-54
2023/02/17 02:13:36;;;;;;;34.78;25.30;;;8.70;99.90;;;;;;5033310;28;20409;-54
2023/02/17 02:16:25;;;;;;;33.22;24.83;;;8.70;99.90;;;;;;5032558;28;20025;-53
2023/02/17 02:19:16;;;;;;;36.50;26.67;;;8.70;99.90;;;;;;5032455;28;20064;-52
2023/02/17 02:22:37;;;;;;;33.75;26.33;;;8.70;99.90;;;;;;5019081;28;20037;-52
2023/02/17 02:25:29;;;;;;;36.00;24.75;;;8.60;99.90;;;;;;5032706;28;20557;-55
2023/02/17 02:28:38;;;;;;;34.55;24.30;;;8.60;99.90;;;;;;5031866;28;20025;-55
2023/02/17 02:31:43;;;;;;;36.13;25.83;;;8.70;99.90;;;;;;5032410;28;20500;-56
2023/02/17 02:34:41;;;;;;;37.55;26.27;;;8.70;99.90;;;;;;5031454;28;20034;-51
2023/02/17 02:37:47;;;;;;;32.88;24.63;;;8.70;99.90;;;;;;5011476;28;20054;-55
2023/02/17 02:40:39;;;;;;;37.00;25.98;;;8.70;99.90;;;;;;5019625;28;20116;-55
2023/02/17 02:43:25;;;;;;;34.10;26.05;;;8.60;99.90;;;;;;5031829;28;20529;-51
2023/02/17 02:46:11;;;;;;;35.05;25.75;;;8.60;99.90;;;;;;5033189;28;20037;-55
2023/02/17 02:48:58;;;;;;;36.58;27.25;;;8.60;99.90;;;;;;5032335;28;20113;-54
2023/02/17 02:52:22;;;;;;;39.65;27.02;;;8.60;99.90;;;;;;5031574;28;20113;-53
2023/02/17 02:55:14;;;;;;;34.40;25.00;;;8.50;99.90;;;;;;5031202;28;20040;-56
2023/02/17 02:58:09;;;;;;;37.30;26.52;;;8.50;99.90;;;;;;5031554;28;20445;-55
2023/02/17 03:01:12;;;;;;;37.03;28.92;;;8.60;99.90;;;;;;5030677;28;20442;-51
2023/02/17 03:04:35;;;;;;;35.38;25.75;;;8.50;99.90;;;;;;5031785;28;20357;-52
2023/02/17 03:07:26;;;;;;;34.70;26.50;;;8.50;99.90;;;;;;5011885;28;20066;-53
2023/02/17 03:10:12;;;;;;;35.50;27.17;;;8.50;99.90;;;;;;5021195;28;20060;-52
2023/02/17 03:13:01;;;;;;;33.78;25.63;;;8.60;99.90;;;;;;5032861;28;20030;-53
2023/02/17 03:15:47;;;;;;;32.92;26.05;;;8.60;99.90;;;;;;5031715;28;20090;-52
2023/02/17 03:18:35;;;;;;;35.60;26.05;;;8.60;99.90;;;;;;5017048;28;20028;-55
2023/02/17 03:21:21;;;;;;;36.03;26.65;;;8.60;99.90;;;;;;5016720;28;20387;-52
2023/02/17 03:24:07;;;;;;;35.15;26.73;;;8.60;99.90;;;;;;5031248;28;20061;-52
2023/02/17 03:26:53;;;;;;;35.45;26.35;;;8.60;99.90;;;;;;5031184;28;20053;-50
2023/02/17 03:29:39;;;;;;;34.05;26.05;;;8.60;99.90;;;;;;5031103;28;20041;-52
2023/02/17 03:32:25;;;;;;;33.20;25.27;;;8.50;99.90;;;;;;5031248;28;20519;-56
2023/02/17 03:35:12;;;;;;;36.28;26.25;;;8.50;99.90;;;;;;5030992;28;20021;-51
2023/02/17 03:37:58;;;;;;;32.88;25.75;;;8.60;99.90;;;;;;5017024;28;20037;-54
2023/02/17 03:40:43;;;;;;;32.88;25.55;;;8.50;99.90;;;;;;5031070;28;20033;-53
2023/02/17 03:43:29;;;;;;;34.42;25.25;;;8.60;99.90;;;;;;5031330;28;20037;-51
2023/02/17 03:46:16;;;;;;;34.53;25.45;;;8.60;99.90;;;;;;5030920;28;20409;-56
2023/02/17 03:49:02;;;;;;;32.80;25.10;;;8.60;99.90;;;;;;5030507;28;20544;-50
2023/02/17 03:51:48;;;;;;;32.10;25.25;;;8.60;99.90;;;;;;5016264;28;20076;-59
2023/02/17 03:54:34;;;;;;;32.80;24.83;;;8.60;99.90;;;;;;5017540;28;20120;-52
2023/02/17 03:57:20;;;;;;;32.22;25.52;;;8.70;99.90;;;;;;5030178;28;20068;-53
2023/02/17 04:00:07;;;;;;;31.33;24.73;;;8.80;99.90;;;;;;5030262;28;20080;-54
2023/02/17 04:02:52;;;;;;;34.88;26.17;;;8.70;99.90;;;;;;5030438;28;20072;-49
2023/02/17 04:05:38;;;;;;;35.72;26.05;;;8.60;99.90;;;;;;5030873;28;20048;-54
2023/02/17 04:08:24;;;;;;;31.15;25.08;;;8.60;99.90;;;;;;5029596;28;20040;-54
2023/02/17 04:11:10;;;;;;;30.73;24.83;;;8.70;99.90;;;;;;5030765;28;20056;-58
2023/02/17 04:13:56;;;;;;;27.85;23.30;;;8.80;99.90;;;;;;5031526;28;20061;-56
2023/02/17 04:16:42;;;;;;;29.73;23.60;;;8.70;99.90;;;;;;5030529;28;20026;-55
2023/02/17 04:19:28;;;;;;;31.70;23.00;;;8.80;99.90;;;;;;5027667;28;20561;-56
2023/02/17 04:22:14;;;;;;;29.45;23.00;;;8.80;99.90;;;;;;5040577;28;20041;-57
2023/02/17 04:25:00;;;;;;;28.60;23.65;;;8.90;99.90;;;;;;5036873;28;20411;-50
2023/02/17 04:27:46;;;;;;;29.20;22.33;;;8.90;99.90;;;;;;5033876;28;20022;-51
2023/02/17 04:30:32;;;;;;;28.20;22.33;;;8.90;99.90;;;;;;5034652;28;20036;-53
2023/02/17 04:33:18;;;;;;;26.77;22.45;;;8.90;99.90;;;;;;5033690;28;20100;-53
2023/02/17 04:36:05;;;;;;;28.17;21.77;;;8.90;99.90;;;;;;5040784;28;20025;-52
2023/02/17 04:38:51;;;;;;;29.70;21.90;;;8.90;99.90;;;;;;5046686;28;20025;-49
2023/02/17 04:41:36;;;;;;;25.35;21.35;;;8.90;99.90;;;;;;5010276;28;20564;-50
2023/02/17 04:44:22;;;;;;;26.02;21.73;;;8.90;99.90;;;;;;5011246;28;20540;-53
2023/02/17 04:47:08;;;;;;;25.60;21.30;;;8.90;99.90;;;;;;5029915;28;20069;-50
2023/02/17 04:49:54;;;;;;;29.15;21.55;;;8.90;99.90;;;;;;5030195;28;20034;-55
2023/02/17 04:52:40;;;;;;;22.83;19.23;;;8.90;99.90;;;;;;5029777;28;20026;-54
2023/02/17 04:55:26;;;;;;;24.20;21.02;;;9.00;99.90;;;;;;5029514;28;20512;-52
2023/02/17 04:58:12;;;;;;;24.45;19.85;;;9.00;99.90;;;;;;5030122;28;20052;-54
2023/02/17 05:00:59;;;;;;;23.30;19.52;;;9.00;99.90;;;;;;5030120;28;20056;-51
2023/02/17 05:03:45;;;;;;;25.15;19.70;;;9.10;99.90;;;;;;5029104;28;20136;-53
2023/02/17 05:06:31;;;;;;;23.60;19.38;;;9.10;99.90;;;;;;5030039;28;20026;-50
2023/02/17 05:09:17;;;;;;;23.95;19.05;;;9.20;99.90;;;;;;5029909;28;20026;-50
2023/02/17 05:12:05;;;;;;;22.92;18.30;;;9.20;99.90;;;;;;5030302;28;20450;-55
2023/02/17 05:14:51;;;;;;;22.27;19.88;;;9.20;99.90;;;;;;5029248;28;20029;-55
2023/02/17 05:17:37;;;;;;;20.05;16.88;;;9.20;99.90;;;;;;5029683;28;20049;-52
2023/02/17 05:20:23;;;;;;;19.40;16.92;;;9.20;99.90;;;;;;5030793;28;20034;-54
2023/02/17 05:23:09;;;;;;;18.63;15.90;;;9.20;99.90;;;;;;5030484;28;20041;-53
2023/02/17 05:25:54;;;;;;;20.08;16.15;;;9.20;99.90;;;;;;5033620;28;20600;-58
2023/02/17 05:28:40;;;;;;;18.00;15.35;;;9.20;99.90;;;;;;5033613;28;20457;-52
2023/02/17 05:31:26;;;;;;;16.38;14.18;;;9.20;99.90;;;;;;5033789;28;20482;-56
2023/02/17 05:34:14;;;;;;;18.05;14.95;;;9.20;99.90;;;;;;5020087;28;20037;-55
2023/02/17 05:37:01;;;;;;;18.58;14.55;;;9.20;99.90;;;;;;5019421;28;20033;-53
2023/02/17 05:39:46;;;;;;;15.80;14.07;;;9.30;99.90;;;;;;5019152;28;20033;-51
2023/02/17 05:42:32;;;;;;;15.80;14.10;;;9.30;99.90;;;;;;5033334;28;20038;-56
2023/02/17 05:45:18;;;;;;;15.93;13.43;;;9.30;99.90;;;;;;5033574;28;20033;-51
2023/02/17 05:48:04;;;;;;;17.60;14.00;;;9.30;99.90;;;;;;5032732;28;20163;-51
2023/02/17 05:50:50;;;;;;;15.85;13.93;;;9.30;99.90;;;;;;5033641;28;20033;-51
2023/02/17 05:53:36;;;;;;;15.05;12.95;;;9.30;99.90;;;;;;5019238;28;20037;-53
2023/02/17 05:56:22;;;;;;;15.00;13.40;;;9.30;99.90;;;;;;5032688;28;20447;-55
2023/02/17 05:59:08;;;;;;;16.50;14.40;;;9.30;99.90;;;;;;5032899;28;20493;-49
2023/02/17 06:01:54;;;;;;;17.63;14.13;;;9.30;99.90;;;;;;5033006;28;20456;-51
2023/02/17 06:04:40;;;;;;;16.95;14.05;;;9.30;99.90;;;;;;5032621;28;20029;-52
2023/02/17 06:07:26;;;;;;;18.30;15.00;;;9.30;99.90;;;;;;5032511;28;20040;-52
2023/02/17 06:10:12;;;;;;;15.98;14.27;;;9.30;99.90;;;;;;5031888;28;20040;-49
2023/02/17 06:12:58;;;;;;;18.88;14.55;;;9.20;99.90;;;;;;5033364;28;20029;-52
2023/02/17 06:15:44;;;;;;;17.10;15.05;;;9.30;99.90;;;;;;5014827;28;20033;-52
2023/02/17 06:18:29;;;;;;;19.02;15.55;;;9.20;99.90;;;;;;5016896;28;20105;-48
2023/02/17 06:21:15;;;;;;;18.67;15.10;;;9.20;99.90;;;;;;5032657;28;20063;-49
2023/02/17 06:24:01;;;;;;;17.85;15.10;;;9.30;99.90;;;;;;5033052;28;20049;-50
2023/02/17 06:26:47;;;;;;;18.08;14.52;;;9.30;99.90;;;;;;5033766;28;20025;-49
2023/02/17 06:29:33;;;;;;;17.88;15.77;;;9.30;99.90;;;;;;5032018;28;20143;-49
2023/02/17 06:32:19;;;;;;;21.05;16.60;;;9.30;99.90;;;;;;5032242;28;20022;-52
2023/02/17 06:35:05;;;;;;;17.80;15.25;;;9.40;99.90;;;;;;5033552;28;20033;-52
2023/02/17 06:37:51;;;;;;;17.85;15.05;;;9.40;99.90;;;;;;5033652;28;20021;-51
2023/02/17 06:40:37;;;;;;;21.70;16.48;;;9.40;99.90;;;;;;5052155;22;20060;-52
2023/02/17 06:43:23;;;;;;;21.25;16.63;;;9.40;99.90;;;;;;5005495;28;20159;-53
2023/02/17 06:46:09;;;;;;;19.40;16.15;;;9.40;99.90;;;;;;5042705;28;20036;-53
2023/02/17 06:48:55;;;;;;;20.15;16.63;;;9.50;99.90;;;;;;5052515;28;20036;-49
2023/02/17 06:51:41;;;;;;;17.70;15.85;;;9.50;99.90;;;;;;5052819;28;20037;-52
2023/02/17 06:54:27;;;;;;;17.95;15.93;;;9.50;99.90;;;;;;5053268;28;20029;-54
2023/02/17 06:57:13;;;;;;;20.45;16.45;;;9.50;99.90;;;;;;5052344;28;20029;-51
2023/02/17 06:59:59;;;;;;;20.73;16.80;;;9.50;99.90;;;;;;5052171;28;20406;-53
2023/02/17 07:02:45;;;;;;;19.73;17.60;;;9.50;99.90;;;;;;5053056;28;20478;-52
2023/02/17 07:05:34;;;;;;;23.58;17.77;;;9.60;99.90;;;;;;5051777;28;20040;-51
2023/02/17 07:08:19;;;;;;;19.67;16.27;;;9.60;99.90;;;;;;5051562;28;20029;-51
2023/02/17 07:11:07;;;;;;;20.52;16.77;;;9.60;99.90;;;;;;5052221;28;20040;-49
2023/02/17 07:13:56;;;;;;;21.90;17.55;;;9.60;99.90;;;;;;5052149;28;20067;-49
2023/02/17 07:16:42;;;;;;;21.63;17.35;;;9.60;99.90;;;;;;5052143;28;20037;-51
2023/02/17 07:19:28;;;;;;;20.25;16.42;;;9.70;99.90;;;;;;5052861;28;20064;-52
2023/02/17 07:22:14;;;;;;;20.85;17.60;;;9.70;99.90;;;;;;5051366;28;20063;-51
2023/02/17 07:25:00;;;;;;;21.23;17.38;;;9.70;99.90;;;;;;5051662;28;20055;-55
2023/02/17 07:27:46;;;;;;;23.25;17.73;;;9.80;99.90;;;;;;5051789;28;20033;-53
2023/02/17 07:30:37;;;;;;;21.40;18.17;;;9.80;99.90;;;;;;5050919;28;20116;-46
2023/02/17 07:33:23;;;;;;;22.42;18.40;;;9.80;99.90;;;;;;5037706;28;20385;-50
2023/02/17 07:36:11;;;;;;;22.40;17.30;;;9.80;99.90;;;;;;5051602;28;20566;-52
2023/02/17 07:38:58;;;;;;;23.10;18.90;;;9.80;99.90;;;;;;5051737;28;20037;-48
2023/02/17 07:41:43;;;;;;;20.73;18.08;;;9.90;99.90;;;;;;5030545;28;20034;-46
2023/02/17 07:44:29;;;;;;;23.25;18.25;;;9.90;99.90;;;;;;5031611;28;20034;-49
2023/02/17 07:47:15;;;;;;;23.10;18.55;;;9.90;99.90;;;;;;5047050;28;20044;-49
2023/02/17 07:50:01;;;;;;;21.85;18.05;;;9.90;99.90;;;;;;5050981;28;20072;-52
2023/02/17 07:52:49;;;;;;;20.23;17.85;;;10.00;99.90;;;;;;5051515;28;20033;-51
2023/02/17 07:55:35;;;;;;;21.20;17.23;;;9.90;99.90;;;;;;5051256;28;20021;-47
2023/02/17 07:58:20;;;;;;;21.40;17.50;;;10.00;99.90;;;;;;5031705;28;20041;-48
2023/02/17 08:01:06;;;;;;;21.75;18.33;;;10.00;99.90;;;;;;5040728;28;20028;-49
2023/02/17 08:03:52;;;;;;;20.33;17.90;;;10.00;99.90;;;;;;5051714;28;20026;-51
2023/02/17 08:06:39;;;;;;;23.40;18.02;;;10.10;99.90;;;;;;5050445;28;20033;-49
2023/02/17 08:15:33;;;;;;;19.30;15.90;;;10.20;99.90;;;;;;5051171;28;20025;-48
2023/02/17 08:18:19;;;;;;;21.42;16.75;;;10.20;99.90;;;;;;5037076;28;20060;-48
2023/02/17 08:21:05;;;;;;;17.30;14.95;;;10.20;99.90;;;;;;5051500;28;20072;-52
2023/02/17 08:23:52;;;;;;;18.65;14.93;;;10.30;99.90;;;;;;5050731;28;20493;-51
2023/02/17 08:26:38;;;;;;;16.45;14.43;;;10.40;99.90;;;;;;5035921;28;20551;-47
2023/02/17 08:29:24;;;;;;;15.93;13.80;;;10.40;99.90;;;;;;5050789;28;20028;-54
2023/02/17 08:32:12;;;;;;;17.05;13.90;;;10.40;99.90;;;;;;5050598;28;20052;-53
2023/02/17 08:34:58;;;;;;;15.20;13.48;;;10.40;99.90;;;;;;5035569;28;20025;-48
2023/02/17 08:37:44;;;;;;;15.38;13.13;;;10.50;99.90;;;;;;5047855;28;20029;-50
2023/02/17 08:40:30;;;;;;;15.55;13.43;;;10.50;99.90;;;;;;5043621;28;20036;-48
2023/02/17 08:43:16;;;;;;;14.05;12.55;;;10.50;99.90;;;;;;5049588;28;20083;-48
2023/02/17 08:46:06;;;;;;;15.93;13.27;;;10.50;99.90;;;;;;5050656;28;20037;-48
2023/02/17 08:48:53;;;;;;;16.08;13.13;;;10.50;99.90;;;;;;5049807;28;20099;-52
2023/02/17 08:51:39;;;;;;;14.73;12.57;;;10.60;99.90;;;;;;5050377;28;20033;-52
2023/02/17 08:54:25;;;;;;;14.82;12.35;;;10.60;99.90;;;;;;5050508;28;20032;-55
2023/02/17 08:57:11;;;;;;;14.13;11.88;;;10.60;99.90;;;;;;5049022;28;20029;-52
2023/02/17 08:59:57;;;;;;;14.40;12.55;;;10.60;99.90;;;;;;5055151;28;20052;-54
2023/02/17 09:02:44;;;;;;;14.00;12.27;;;10.70;99.90;;;;;;5054182;28;20033;-48
2023/02/17 09:05:31;;;;;;;14.40;11.55;;;10.70;99.90;;;;;;5051018;28;20537;-50
2023/02/17 09:08:17;;;;;;;14.48;11.95;;;10.70;99.90;;;;;;5054075;28;20505;-47
2023/02/17 09:11:04;;;;;;;15.65;12.70;;;10.70;99.90;;;;;;5052411;28;20048;-48
2023/02/17 09:13:50;;;;;;;17.63;12.18;;;10.70;99.90;;;;;;5053711;28;20029;-51
2023/02/17 09:16:36;;;;;;;13.43;11.82;;;10.70;99.90;;;;;;5048269;28;20051;-48
2023/02/17 09:19:23;;;;;;;13.75;11.15;;;10.70;99.90;;;;;;5049429;28;20132;-49
2023/02/17 09:22:09;;;;;;;15.95;11.73;;;10.70;99.90;;;;;;5052800;28;20556;-51
2023/02/17 09:24:55;;;;;;;13.43;12.02;;;10.70;99.90;;;;;;5053391;28;20071;-51
2023/02/17 09:27:41;;;;;;;14.98;11.43;;;10.70;99.90;;;;;;5051811;28;20400;-50
2023/02/17 09:30:27;;;;;;;13.55;11.10;;;10.80;99.90;;;;;;5053026;28;20397;-51
2023/02/17 09:33:13;;;;;;;12.40;10.07;;;10.80;99.90;;;;;;5051367;28;20057;-51
2023/02/17 09:36:00;;;;;;;12.27;10.93;;;10.90;99.90;;;;;;5051629;28;20021;-54
2023/02/17 09:38:46;;;;;;;12.27;10.95;;;10.90;99.90;;;;;;5052901;28;20719;-49
2023/02/17 09:41:36;;;;;;;12.40;10.70;;;10.90;99.90;;;;;;5053178;28;20048;-53
2023/02/17 09:44:46;;;;;;;11.20;10.10;;;10.90;99.90;;;;;;5053590;28;20033;-53
2023/02/17 09:47:55;;;;;;;12.23;10.98;;;10.90;99.90;;;;;;5056855;28;20014;-50
2023/02/17 09:50:52;;;;;;;12.98;10.57;;;10.90;99.90;;;;;;5059217;28;20453;-52
2023/02/17 09:53:45;;;;;;;11.80;9.93;;;10.90;99.90;;;;;;5051635;28;20024;-52
2023/02/17 09:56:39;;;;;;;11.23;9.48;;;11.00;99.90;;;;;;5049699;28;20527;-49
2023/02/17 09:59:40;;;;;;;11.75;9.80;;;11.00;99.90;;;;;;5053288;28;20041;-51
2023/02/17 10:02:39;;;;;;;9.68;8.68;;;11.00;99.90;;;;;;5050909;28;20040;-54
2023/02/17 10:05:32;;;;;;;11.20;9.13;;;11.00;99.90;;;;;;5051155;28;20032;-54
2023/02/17 10:08:25;;;;;;;10.52;9.43;;;11.00;99.90;;;;;;5050893;28;20036;-53
2023/02/17 10:11:56;;;;;;;10.57;9.38;;;11.00;99.90;;;;;;5040840;28;20032;-51
2023/02/17 10:14:51;;;;;;;11.65;8.88;;;11.10;99.90;;;;;;4989811;28;20069;-50
2023/02/17 10:17:41;;;;;;;10.65;8.77;;;11.10;99.90;;;;;;4995371;28;20481;-53
2023/02/17 10:20:38;;;;;;;10.48;8.68;;;11.10;99.90;;;;;;5055810;28;20033;-50
2023/02/17 10:23:26;;;;;;;10.48;8.75;;;11.30;99.90;;;;;;5059666;28;20017;-51
2023/02/17 10:26:21;;;;;;;10.35;8.30;;;11.30;99.90;;;;;;5052842;28;20048;-53
2023/02/17 10:29:30;;;;;;;10.43;8.88;;;11.40;99.90;;;;;;5038811;28;20017;-51
2023/02/17 10:32:24;;;;;;;11.90;8.73;;;11.40;99.90;;;;;;5050354;28;20027;-56
2023/02/17 10:35:29;;;;;;;9.63;8.27;;;11.40;99.90;;;;;;5052037;28;20032;-50
2023/02/17 10:38:38;;;;;;;10.70;8.32;;;11.50;99.90;;;;;;5052592;28;20020;-50
2023/02/17 10:41:33;;;;;;;9.68;8.38;;;11.50;99.90;;;;;;5052641;28;20029;-49
2023/02/17 10:44:23;;;;;;;11.32;8.98;;;11.60;99.90;;;;;;5050954;28;20053;-54
2023/02/17 10:47:10;;;;;;;11.85;8.27;;;11.60;99.90;;;;;;5050431;28;20040;-54
2023/02/17 10:50:00;;;;;;;9.75;8.23;;;11.60;99.90;;;;;;5052161;28;20025;-53
2023/02/17 10:52:47;;;;;;;9.32;8.32;;;11.70;99.90;;;;;;5036699;28;20033;-51
2023/02/17 10:55:39;;;;;;;9.95;8.05;;;11.70;99.90;;;;;;5047363;28;20043;-52
2023/02/17 10:58:33;;;;;;;10.07;7.85;;;11.70;99.90;;;;;;5013791;28;20017;-52
2023/02/17 11:01:22;;;;;;;9.32;8.13;;;11.70;99.90;;;;;;5045537;28;20029;-54
2023/02/17 11:04:09;;;;;;;11.52;8.07;;;11.70;99.90;;;;;;5052801;28;20120;-52
2023/02/17 11:07:00;;;;;;;9.82;8.02;;;11.70;99.90;;;;;;5051074;28;20029;-50
2023/02/17 11:09:54;;;;;;;8.68;7.65;;;11.80;99.90;;;;;;5051867;28;20060;-49
2023/02/17 11:12:40;;;;;;;9.50;7.80;;;11.80;99.90;;;;;;5051951;28;20078;-52
2023/02/17 11:15:32;;;;;;;8.70;7.80;;;11.90;99.90;;;;;;5048011;28;20091;-53
2023/02/17 11:18:22;;;;;;;9.70;7.85;;;11.90;99.90;;;;;;5037701;28;20036;-51
2023/02/17 11:21:10;;;;;;;9.98;8.05;;;11.90;99.90;;;;;;5050858;28;20033;-52
2023/02/17 11:24:02;;;;;;;11.52;9.82;;;11.90;99.90;;;;;;5052799;28;20036;-51
2023/02/17 11:27:08;;;;;;;8.68;7.32;;;12.00;99.90;;;;;;5050438;28;20497;-54
2023/02/17 11:30:09;;;;;;;9.75;7.32;;;12.10;99.90;;;;;;5037257;28;20116;-50
2023/02/17 11:32:55;;;;;;;8.48;6.82;;;12.30;99.90;;;;;;5052163;28;20021;-51
2023/02/17 11:35:45;;;;;;;10.00;7.47;;;12.30;99.90;;;;;;5051928;28;20027;-54
2023/02/17 11:38:43;;;;;;;11.00;7.90;;;12.30;99.90;;;;;;5051897;28;20489;-51
2023/02/17 11:41:38;;;;;;;12.18;7.93;;;12.30;99.90;;;;;;5050337;28;20374;-54
2023/02/17 11:44:27;;;;;;;8.98;7.70;;;12.20;99.90;;;;;;5032128;28;20140;-50
2023/02/17 11:47:22;;;;;;;18.65;7.65;;;12.20;99.90;;;;;;5037383;28;20111;-51
2023/02/17 11:50:33;;;;;;;8.60;7.55;;;12.20;99.90;;;;;;5050412;28;20117;-51
2023/02/17 11:53:40;;;;;;;8.57;7.68;;;12.30;99.90;;;;;;5051263;28;20025;-50
2023/02/17 11:56:36;;;;;;;8.25;7.45;;;12.20;99.90;;;;;;5051210;28;20033;-53
2023/02/17 11:59:37;;;;;;;7.95;7.07;;;12.30;99.90;;;;;;5032316;28;20029;-51
2023/02/17 12:02:43;;;;;;;7.95;7.15;;;12.30;99.90;;;;;;5037248;28;20052;-54
2023/02/17 12:05:51;;;;;;;8.50;7.25;;;12.40;99.90;;;;;;5050906;28;20033;-52
2023/02/17 12:08:46;;;;;;;8.35;7.15;;;12.40;99.90;;;;;;5050940;28;20506;-49
2023/02/17 12:11:49;;;;;;;10.32;7.30;;;12.30;99.90;;;;;;5051194;28;20025;-49
2023/02/17 12:15:14;;;;;;;8.18;6.57;;;12.30;99.90;;;;;;5050651;28;20079;-50
2023/02/17 12:18:09;;;;;;;8.90;7.30;;;12.30;99.90;;;;;;5015883;28;20029;-49
2023/02/17 12:21:04;;;;;;;8.10;7.07;;;12.30;99.90;;;;;;5036735;28;20029;-50
2023/02/17 12:23:55;;;;;;;12.27;8.32;;;12.30;99.90;;;;;;5069502;28;20040;-51
2023/02/17 12:26:49;;;;;;;6.95;6.22;;;12.30;99.90;;;;;;5060425;28;20025;-52
2023/02/17 12:29:40;;;;;;;7.82;6.32;;;12.40;99.90;;;;;;5050126;28;20033;-49
2023/02/17 12:32:53;;;;;;;7.65;6.65;;;12.40;99.90;;;;;;5057698;28;20020;-54
2023/02/17 12:35:42;;;;;;;7.03;6.32;;;12.40;99.90;;;;;;5037951;28;20482;-50
2023/02/17 12:38:35;;;;;;;7.10;5.85;;;12.40;99.90;;;;;;5038003;28;20043;-52
2023/02/17 12:41:37;;;;;;;7.07;5.78;;;12.40;99.90;;;;;;5040863;28;20064;-49
2023/02/17 12:44:30;;;;;;;8.10;6.30;;;12.50;99.90;;;;;;5055528;28;20104;-50
2023/02/17 12:47:25;;;;;;;7.80;5.65;;;12.50;99.90;;;;;;5038717;28;20441;-48
2023/02/17 12:50:17;;;;;;;7.72;6.10;;;12.50;99.90;;;;;;5050639;28;20021;-53
2023/02/17 12:53:21;;;;;;;8.25;6.57;;;12.50;99.90;;;;;;5057958;28;20084;-53
2023/02/17 12:56:36;;;;;;;6.82;6.03;;;12.50;99.90;;;;;;5024847;28;20021;-53
2023/02/17 12:59:35;;;;;;;6.50;5.80;;;12.60;99.90;;;;;;5026625;28;20033;-48
2023/02/17 13:02:25;;;;;;;6.53;5.68;;;12.60;99.90;;;;;;5058787;28;20108;-50
2023/02/17 13:05:32;;;;;;;7.47;5.80;;;12.60;99.90;;;;;;5059803;28;20061;-49
2023/02/17 13:08:24;;;;;;;6.30;5.68;;;12.60;99.90;;;;;;5058627;28;20044;-48
2023/02/17 13:11:13;;;;;;;7.10;5.68;;;12.60;99.90;;;;;;5059387;28;20037;-60
2023/02/17 13:14:23;;;;;;;7.82;5.72;;;12.60;99.90;;;;;;5058449;28;20515;-53
2023/02/17 13:17:33;;;;;;;8.30;6.13;;;12.60;99.90;;;;;;5057671;28;20409;-51
2023/02/17 13:20:19;;;;;;;6.38;5.72;;;12.70;99.90;;;;;;5057474;28;20451;-49
2023/02/17 13:23:10;;;;;;;7.95;6.18;;;12.80;99.90;;;;;;5057340;28;20112;-48
2023/02/17 13:26:20;;;;;;;7.80;6.15;;;12.80;99.90;;;;;;5057413;28;20028;-54
2023/02/17 13:29:23;;;;;;;6.50;5.90;;;12.80;99.90;;;;;;5057364;28;20047;-51
2023/02/17 13:32:11;;;;;;;7.13;6.32;;;12.90;99.90;;;;;;5057507;28;20032;-52
2023/02/17 13:35:06;;;;;;;6.47;5.50;;;12.90;99.90;;;;;;5057653;28;20017;-49
2023/02/17 13:37:53;;;;;;;;;;;13.00;99.90;;;;;;5057560;28;20029;-50
2023/02/17 13:40:44;;;;;;;6.57;5.88;;;13.10;99.90;;;;;;5057664;28;19905;-49
2023/02/17 13:43:38;;;;;;;6.20;5.60;;;13.10;99.90;;;;;;5056534;28;20438;-52
2023/02/17 13:46:26;;;;;;;8.13;5.70;;;13.20;99.90;;;;;;5053960;28;20121;-50
2023/02/17 13:49:21;;;;;;;8.80;5.90;;;13.30;99.90;;;;;;5054078;28;20048;-48
2023/02/17 13:52:18;;;;;;;6.93;5.50;;;13.30;99.90;;;;;;5054160;28;20100;-53
2023/02/17 13:55:05;;;;;;;6.65;6.00;;;13.40;99.90;;;;;;5040112;28;20036;-50
2023/02/17 13:57:54;;;;;;;5.90;5.30;;;13.30;99.90;;;;;;5053753;28;20021;-54
2023/02/17 14:00:57;;;;;;;6.78;5.82;;;13.40;99.90;;;;;;5061161;28;20036;-55
2023/02/17 14:03:54;;;;;;;6.75;5.32;;;13.50;99.90;;;;;;5039828;28;20068;-52
2023/02/17 14:06:40;;;;;;;7.40;5.38;;;13.50;99.90;;;;;;5053918;28;20688;-54
2023/02/17 14:09:29;;;;;;;7.95;5.20;;;13.60;99.90;;;;;;5039903;28;20029;-51
2023/02/17 14:12:25;;;;;;;6.47;5.80;;;13.60;99.90;;;;;;5054903;28;20022;-51
2023/02/17 14:15:16;;;;;;;6.82;5.13;;;13.60;99.90;;;;;;5054985;28;20025;-50
2023/02/17 14:18:13;;;;;;;7.00;5.80;;;13.70;99.90;;;;;;5052730;28;20027;-55
2023/02/17 14:21:03;;;;;;;6.50;5.57;;;13.80;99.90;;;;;;5054746;28;20512;-53
2023/02/17 14:23:53;;;;;;;6.25;5.65;;;13.90;99.90;;;;;;5054354;28;20053;-52
2023/02/17 14:26:43;;;;;;;6.10;5.43;;;14.10;99.90;;;;;;5052904;28;20498;-51
2023/02/17 14:29:41;;;;;;;10.70;5.68;;;14.20;99.90;;;;;;5058892;28;20025;-50
2023/02/17 14:32:33;;;;;;;6.28;5.30;;;14.20;99.90;;;;;;5039445;28;20064;-55
2023/02/17 14:35:23;;;;;;;5.63;5.13;;;14.30;99.90;;;;;;5053501;28;20029;-57
2023/02/17 14:38:20;;;;;;;6.05;5.07;;;14.30;99.90;;;;;;5039135;28;20091;-56
2023/02/17 14:41:10;;;;;;;5.72;4.70;;;14.20;99.90;;;;;;5054930;28;20033;-56
2023/02/17 14:43:56;;;;;;;6.97;4.32;;;14.30;99.90;;;;;;5040790;28;20027;-50